Dades meteomassalio
Diari Summary for Juliol 5, 2017 Units:  English    Metric   Both
« Previous Day
Next Day »
Diari Semanal Mensual Anual Personalitzat
  Maxima: Minima: Mijana:
Temperatura: TemperatureF °F 57.3 °F 76.1 °F
Rosada: DewpointF °F 48.7 °F 57.1 °F
Humitat: Humidity % 37 % 53 %
Velocitat del vent: WindSpeedMPH mph 0.0 mph 5.8 mph
Racha vent: WindSpeedGustMPH mph - -
Vent:- - ESE
Pressio: PressureIn in 29.87 in -
Pluja: 0.00 in    
Historical Graphs
 
 
Tabular Data for Juliol 5, 2017
Time Temperature Dew Point Pressure Wind Wind Speed Wind Gust Humidity Rainfall Rate (Hourly) solar Conditions
TemperatureF °F DewpointF °F PressureIn in Calm     Humidity % HourlyPrecipIn in SolarRadiationWatts/m^2 W/m2 Conditions
00:01 72.4 °F 53.8 °F 29.98 in Calm     52 % 0.00 in 0.0 W/m2 CLR
00:02 72.4 °F 53.8 °F 29.98 in Calm     52 % 0.00 in 0.0 W/m2 CLR
00:07 72.3 °F 54.2 °F 29.98 in Calm     53 % 0.00 in 0.0 W/m2 CLR
00:12 72.1 °F 54.0 °F 29.99 in Calm     53 % 0.00 in 0.0 W/m2 CLR
00:14 72.0 °F 53.9 °F 29.99 in Calm     53 % 0.00 in 0.0 W/m2 CLR
00:19 71.6 °F 53.0 °F 29.99 in Calm     52 % 0.00 in 0.0 W/m2 CLR
00:24 71.1 °F 53.1 °F 29.98 in Calm     53 % 0.00 in 0.0 W/m2 CLR
00:29 70.7 °F 53.2 °F 29.98 in Calm     54 % 0.00 in 0.0 W/m2 CLR
00:34 70.3 °F 53.4 °F 29.99 in Calm     55 % 0.00 in 0.0 W/m2 CLR
00:39 70.2 °F 53.3 °F 29.99 in Calm     55 % 0.00 in 0.0 W/m2 CLR
00:44 70.3 °F 52.9 °F 29.98 in Calm     54 % 0.00 in 0.0 W/m2 CLR
00:49 70.3 °F 52.9 °F 29.99 in Calm     54 % 0.00 in 0.0 W/m2 CLR
00:54 70.3 °F 52.4 °F 29.98 in Calm     53 % 0.00 in 0.0 W/m2 CLR
00:59 70.2 °F 52.3 °F 29.98 in Calm     53 % 0.00 in 0.0 W/m2 CLR
01:04 70.2 °F 52.3 °F 29.98 in Calm     53 % 0.00 in 0.0 W/m2 CLR
01:09 70.0 °F 51.6 °F 29.98 in Calm     52 % 0.00 in 0.0 W/m2 CLR
01:14 69.8 °F 51.9 °F 29.98 in Calm     53 % 0.00 in 0.0 W/m2 CLR
01:19 69.7 °F 51.8 °F 29.98 in Calm     53 % 0.00 in 0.0 W/m2 CLR
01:20 69.6 °F 51.7 °F 29.99 in Calm     53 % 0.00 in 0.0 W/m2 CLR
01:25 69.1 °F 51.8 °F 29.99 in Calm     54 % 0.00 in 0.0 W/m2 CLR
01:31 68.6 °F 51.3 °F 29.98 in Calm     54 % 0.00 in 0.0 W/m2 CLR
01:36 67.8 °F 51.5 °F 29.98 in Calm     56 % 0.00 in 0.0 W/m2 CLR
01:41 67.6 °F 52.3 °F 29.99 in Calm     58 % 0.00 in 0.0 W/m2 CLR
01:46 67.6 °F 52.3 °F 29.98 in Calm     58 % 0.00 in 0.0 W/m2 CLR
01:51 67.8 °F 52.9 °F 29.98 in Calm     59 % 0.00 in 0.0 W/m2 CLR
01:56 67.8 °F 52.5 °F 29.98 in Calm     58 % 0.00 in 0.0 W/m2 CLR
02:01 67.7 °F 52.4 °F 29.99 in Calm     58 % 0.00 in 0.0 W/m2 CLR
02:06 67.2 °F 51.0 °F 29.99 in Calm     56 % 0.00 in 0.0 W/m2 CLR
02:11 66.8 °F 53.8 °F 29.98 in Calm     63 % 0.00 in 0.0 W/m2 CLR
02:16 67.2 °F 52.4 °F 29.98 in Calm     59 % 0.00 in 0.0 W/m2 CLR
02:21 67.6 °F 54.6 °F 29.98 in Calm     63 % 0.00 in 0.0 W/m2 CLR
02:26 67.6 °F 52.8 °F 29.98 in Calm     59 % 0.00 in 0.0 W/m2 CLR
02:31 67.2 °F 53.3 °F 29.98 in Calm     61 % 0.00 in 0.0 W/m2 CLR
02:36 67.0 °F 54.8 °F 29.98 in Calm     65 % 0.00 in 0.0 W/m2 CLR
02:41 66.8 °F 54.7 °F 29.98 in Calm     65 % 0.00 in 0.0 W/m2 CLR
02:42 66.8 °F 54.2 °F 29.98 in Calm     64 % 0.00 in 0.0 W/m2 CLR
02:47 66.7 °F 55.4 °F 29.98 in Calm     67 % 0.00 in 0.0 W/m2 CLR
02:52 66.7 °F 55.4 °F 29.98 in Calm     67 % 0.00 in 0.0 W/m2 CLR
02:57 66.1 °F 51.4 °F 29.98 in Calm     59 % 0.00 in 0.0 W/m2 CLR
03:02 65.5 °F 50.3 °F 29.98 in Calm     58 % 0.00 in 0.0 W/m2 CLR
03:07 64.9 °F 50.7 °F 29.98 in Calm     60 % 0.00 in 0.0 W/m2 CLR
03:12 64.6 °F 51.3 °F 29.98 in Calm     62 % 0.00 in 0.0 W/m2 CLR
03:17 64.3 °F 51.4 °F 29.98 in Calm     63 % 0.00 in 0.0 W/m2 CLR
03:18 64.2 °F 51.3 °F 29.98 in Calm     63 % 0.00 in 0.0 W/m2 CLR
03:23 64.0 °F 52.4 °F 29.98 in Calm     66 % 0.00 in 0.0 W/m2 CLR
03:28 63.8 °F 52.6 °F 29.98 in Calm     67 % 0.00 in 0.0 W/m2 CLR
03:33 63.7 °F 51.3 °F 29.98 in Calm     64 % 0.00 in 0.0 W/m2 CLR
03:38 63.2 °F 50.0 °F 29.98 in Calm     62 % 0.00 in 0.0 W/m2 CLR
03:43 62.9 °F 50.1 °F 29.98 in Calm     63 % 0.00 in 0.0 W/m2 CLR
03:48 62.3 °F 49.5 °F 29.98 in Calm     63 % 0.00 in 0.0 W/m2 CLR
03:53 61.9 °F 50.4 °F 29.98 in Calm     66 % 0.00 in 0.0 W/m2 CLR
03:58 61.7 °F 51.0 °F 29.98 in Calm     68 % 0.00 in 0.0 W/m2 CLR
04:03 61.6 °F 50.1 °F 29.98 in Calm     66 % 0.00 in 0.0 W/m2 CLR
04:08 61.4 °F 49.9 °F 29.98 in Calm     66 % 0.00 in 0.0 W/m2 CLR
04:13 61.1 °F 49.7 °F 29.98 in Calm     66 % 0.00 in 0.0 W/m2 CLR
04:18 60.9 °F 49.9 °F 29.98 in Calm     67 % 0.00 in 0.0 W/m2 CLR
04:23 60.6 °F 50.0 °F 29.98 in Calm     68 % 0.00 in 0.0 W/m2 CLR
04:28 60.5 °F 49.9 °F 29.98 in Calm     68 % 0.00 in 0.0 W/m2 CLR
04:33 60.3 °F 50.1 °F 29.98 in Calm     69 % 0.00 in 0.0 W/m2 CLR
04:38 60.1 °F 49.5 °F 29.98 in Calm     68 % 0.00 in 0.0 W/m2 CLR
04:43 60.0 °F 49.4 °F 29.98 in Calm     68 % 0.00 in 0.0 W/m2 CLR
04:44 59.9 °F 49.3 °F 29.98 in Calm     68 % 0.00 in 0.0 W/m2 CLR
04:49 59.8 °F 49.6 °F 29.98 in Calm     69 % 0.00 in 0.0 W/m2 CLR
04:54 59.7 °F 49.5 °F 29.98 in Calm     69 % 0.00 in 0.0 W/m2 CLR
04:59 59.6 °F 49.4 °F 29.98 in Calm     69 % 0.00 in 0.0 W/m2 CLR
05:04 59.4 °F 49.2 °F 29.98 in Calm     69 % 0.00 in 0.0 W/m2 CLR
05:09 59.2 °F 49.0 °F 29.98 in Calm     69 % 0.00 in 0.0 W/m2 CLR
05:14 59.1 °F 49.3 °F 29.98 in Calm     70 % 0.00 in 0.0 W/m2 CLR
05:19 59.0 °F 49.2 °F 29.97 in Calm     70 % 0.00 in 0.0 W/m2 CLR
05:24 58.8 °F 49.0 °F 29.98 in Calm     70 % 0.00 in 0.0 W/m2 CLR
05:29 58.5 °F 49.1 °F 29.97 in Calm     71 % 0.00 in 0.0 W/m2 CLR
05:34 58.3 °F 49.3 °F 29.97 in Calm     72 % 0.00 in 0.0 W/m2 CLR
05:39 58.3 °F 49.3 °F 29.97 in Calm     72 % 0.00 in 0.0 W/m2 CLR
05:44 58.2 °F 49.2 °F 29.97 in Calm     72 % 0.00 in 0.0 W/m2 CLR
05:49 58.1 °F 49.5 °F 29.97 in Calm     73 % 0.00 in 0.0 W/m2 CLR
05:54 58.0 °F 49.4 °F 29.97 in Calm     73 % 0.00 in 0.0 W/m2 CLR
05:59 57.9 °F 49.3 °F 29.97 in Calm     73 % 0.00 in 0.0 W/m2 CLR
06:04 57.8 °F 49.2 °F 29.97 in Calm     73 % 0.00 in 0.0 W/m2 CLR
06:09 57.7 °F 49.1 °F 29.98 in Calm     73 % 0.00 in 0.0 W/m2 CLR
06:14 57.7 °F 49.1 °F 29.98 in Calm     73 % 0.00 in 0.0 W/m2 CLR
06:19 57.6 °F 49.4 °F 29.98 in Calm     74 % 0.00 in 0.0 W/m2 CLR
06:24 57.5 °F 49.3 °F 29.98 in Calm     74 % 0.00 in 0.0 W/m2 OVC
06:29 57.6 °F 49.7 °F 29.98 in Calm     75 % 0.00 in 0.0 W/m2 OVC
06:34 57.7 °F 49.8 °F 29.98 in Calm     75 % 0.00 in 5.0 W/m2 OVC
06:39 57.8 °F 49.6 °F 29.98 in Calm     74 % 0.00 in 7.0 W/m2 BKN
06:44 57.7 °F 49.1 °F 29.98 in Calm     73 % 0.00 in 9.0 W/m2 BKN
06:49 57.6 °F 49.0 °F 29.98 in Calm     73 % 0.00 in 11.0 W/m2 BKN
06:54 57.4 °F 48.8 °F 29.98 in Calm     73 % 0.00 in 12.0 W/m2 BKN
06:59 57.3 °F 49.1 °F 29.98 in Calm     74 % 0.00 in 14.0 W/m2 BKN
07:04 57.4 °F 49.2 °F 29.98 in Calm     74 % 0.00 in 18.0 W/m2 BKN
07:09 57.3 °F 48.7 °F 29.99 in Calm     73 % 0.00 in 25.0 W/m2 BKN
07:14 57.4 °F 48.8 °F 29.98 in Calm     73 % 0.00 in 37.0 W/m2 BKN
07:19 57.6 °F 49.4 °F 29.99 in Calm     74 % 0.00 in 47.0 W/m2 SCT
07:24 57.9 °F 49.3 °F 29.99 in Calm     73 % 0.00 in 58.0 W/m2 SCT
07:29 58.2 °F 49.6 °F 29.99 in Calm     73 % 0.00 in 69.0 W/m2 FEW
07:34 58.8 °F 49.8 °F 29.99 in Calm     72 % 0.00 in 84.0 W/m2 FEW
07:39 59.4 °F 50.4 °F 29.99 in Calm     72 % 0.00 in 97.0 W/m2 FEW
07:44 60.1 °F 50.7 °F 29.99 in Calm     71 % 0.00 in 111.0 W/m2 CLR
07:49 61.0 °F 51.5 °F 29.99 in Calm     71 % 0.00 in 123.0 W/m2 CLR
07:54 61.8 °F 51.5 °F 29.99 in Calm     69 % 0.00 in 142.0 W/m2 CLR
07:59 62.5 °F 51.4 °F 29.99 in Calm     67 % 0.00 in 162.0 W/m2 CLR
08:04 63.2 °F 51.6 °F 29.99 in Calm     66 % 0.00 in 176.0 W/m2 CLR
08:09 63.7 °F 52.1 °F 30.00 in Calm     66 % 0.00 in 192.0 W/m2 CLR
08:14 64.1 °F 52.1 °F 30.00 in Calm     65 % 0.00 in 211.0 W/m2 CLR
08:19 64.4 °F 52.4 °F 30.00 in Calm     65 % 0.00 in 225.0 W/m2 CLR
08:24 65.2 °F 53.1 °F 30.00 in Calm     65 % 0.00 in 241.0 W/m2 CLR
08:29 66.2 °F 54.1 °F 30.00 in Calm     65 % 0.00 in 255.0 W/m2 CLR
08:34 67.1 °F 54.1 °F 30.00 in Calm     63 % 0.00 in 269.0 W/m2 CLR
08:39 68.1 °F 54.1 °F 30.00 in Calm     61 % 0.00 in 288.0 W/m2 CLR
08:44 68.8 °F 54.3 °F 30.00 in Calm     60 % 0.00 in 302.0 W/m2 CLR
08:49 69.8 °F 54.8 °F 30.00 in Calm     59 % 0.00 in 316.0 W/m2 CLR
08:54 70.4 °F 55.4 °F 30.00 in Calm     59 % 0.00 in 330.0 W/m2 CLR
08:59 71.4 °F 56.3 °F 30.00 in Calm     59 % 0.00 in 348.0 W/m2 CLR
09:04 72.4 °F 57.3 °F 30.00 in Calm     59 % 0.00 in 364.0 W/m2 CLR
09:09 72.7 °F 58.0 °F 30.00 in Calm     60 % 0.00 in 378.0 W/m2 CLR
09:14 73.1 °F 58.8 °F 30.00 in Calm     61 % 0.00 in 394.0 W/m2 CLR
09:19 73.7 °F 58.9 °F 30.00 in Calm     60 % 0.00 in 413.0 W/m2 CLR
09:24 74.3 °F 59.5 °F 30.00 in Calm     60 % 0.00 in 427.0 W/m2 CLR
09:29 74.9 °F 59.1 °F 30.00 in Calm     58 % 0.00 in 439.0 W/m2 CLR
09:34 75.3 °F 58.5 °F 30.00 in Calm     56 % 0.00 in 457.0 W/m2 CLR
09:39 75.9 °F 58.1 °F 30.00 in Calm     54 % 0.00 in 471.0 W/m2 CLR
09:44 76.7 °F 57.7 °F 29.99 in Calm     52 % 0.00 in 485.0 W/m2 CLR
09:49 77.4 °F 57.9 °F 30.00 in Calm     51 % 0.00 in 499.0 W/m2 CLR
09:54 77.8 °F 59.8 °F 29.99 in Calm     54 % 0.00 in 517.0 W/m2 CLR
09:59 78.0 °F 60.5 °F 29.99 in Calm     55 % 0.00 in 531.0 W/m2 CLR
10:04 78.6 °F 60.6 °F 29.99 in Calm     54 % 0.00 in 545.0 W/m2 CLR
10:09 79.1 °F 60.5 °F 29.99 in NE 3.5 mph 3.5 mph 53 % 0.00 in 557.0 W/m2 CLR
10:14 79.3 °F 61.2 °F 29.99 in ENE 2.3 mph 2.3 mph 54 % 0.00 in 571.0 W/m2 CLR
10:19 79.1 °F 61.0 °F 29.99 in NE 1.2 mph   54 % 0.00 in 584.0 W/m2 CLR
10:24 79.4 °F 61.3 °F 29.99 in NNE 6.9 mph 6.9 mph 54 % 0.00 in 598.0 W/m2 CLR
10:29 79.6 °F 61.0 °F 29.99 in NE 4.6 mph 4.6 mph 53 % 0.00 in 615.0 W/m2 CLR
10:34 80.1 °F 61.4 °F 29.98 in ENE 6.9 mph 6.9 mph 53 % 0.00 in 629.0 W/m2 CLR
10:40 80.7 °F 60.9 °F 29.98 in NE 6.9 mph 6.9 mph 51 % 0.00 in 640.0 W/m2 CLR
10:45 80.6 °F 60.8 °F 29.98 in NE 3.5 mph 3.8 mph 51 % 0.00 in 652.0 W/m2 CLR
10:50 81.0 °F 60.6 °F 29.98 in NE 4.6 mph 4.6 mph 50 % 0.00 in 668.0 W/m2 CLR
10:55 81.3 °F 60.9 °F 29.98 in ENE 5.8 mph   50 % 0.00 in 679.0 W/m2 CLR
11:00 82.0 °F 60.4 °F 29.98 in NE 8.1 mph 8.1 mph 48 % 0.00 in 691.0 W/m2 CLR
11:05 82.3 °F 60.1 °F 29.98 in Calm     47 % 0.00 in 703.0 W/m2 CLR
11:10 82.6 °F 60.3 °F 29.98 in North 5.0 mph 5.0 mph 47 % 0.00 in 715.0 W/m2 CLR
11:15 83.1 °F 60.2 °F 29.98 in NNE 6.9 mph 6.9 mph 46 % 0.00 in 729.0 W/m2 CLR
11:20 83.1 °F 60.2 °F 29.98 in ENE 9.2 mph 9.2 mph 46 % 0.00 in 740.0 W/m2 CLR
11:25 83.2 °F 60.9 °F 29.97 in NE 8.1 mph 8.1 mph 47 % 0.00 in 749.0 W/m2 CLR
11:30 83.2 °F 60.3 °F 29.97 in ENE 6.9 mph 6.9 mph 46 % 0.00 in 759.0 W/m2 CLR
11:35 83.1 °F 60.2 °F 29.97 in NE 11.5 mph 11.5 mph 46 % 0.00 in 772.0 W/m2 CLR
11:40 83.2 °F 60.3 °F 29.97 in ENE 10.4 mph 10.4 mph 46 % 0.00 in 780.0 W/m2 CLR
11:45 83.4 °F 60.4 °F 29.97 in NNE 6.9 mph 6.9 mph 46 % 0.00 in 789.0 W/m2 CLR
11:50 83.8 °F 60.2 °F 29.96 in NE 6.9 mph 6.9 mph 45 % 0.00 in 800.0 W/m2 CLR
11:55 83.9 °F 60.3 °F 29.96 in NE 9.2 mph 9.2 mph 45 % 0.00 in 810.0 W/m2 CLR
12:00 84.2 °F 59.9 °F 29.96 in NE 11.5 mph 11.5 mph 44 % 0.00 in 821.0 W/m2 CLR
12:05 84.3 °F 60.0 °F 29.96 in NE 9.2 mph 9.2 mph 44 % 0.00 in 830.0 W/m2 CLR
12:10 84.9 °F 59.9 °F 29.96 in East 9.2 mph 9.2 mph 43 % 0.00 in 837.0 W/m2 CLR
12:15 85.5 °F 60.4 °F 29.97 in ENE 4.6 mph 4.6 mph 43 % 0.00 in 846.0 W/m2 CLR
12:20 85.7 °F 60.0 °F 29.97 in ENE 5.8 mph 5.8 mph 42 % 0.00 in 856.0 W/m2 CLR
12:25 86.0 °F 60.2 °F 29.96 in ENE 4.6 mph 4.6 mph 42 % 0.00 in 860.0 W/m2 CLR
12:30 86.4 °F 59.9 °F 29.96 in ESE 5.8 mph 5.8 mph 41 % 0.00 in 867.0 W/m2 CLR
12:35 86.1 °F 60.3 °F 29.96 in SE 9.0 mph 9.0 mph 42 % 0.00 in 874.0 W/m2 CLR
12:40 86.1 °F 60.3 °F 29.96 in ESE 6.9 mph 6.9 mph 42 % 0.00 in 881.0 W/m2 CLR
12:45 86.6 °F 61.4 °F 29.95 in ESE 8.1 mph 8.1 mph 43 % 0.00 in 886.0 W/m2 CLR
12:50 86.7 °F 60.9 °F 29.95 in ESE 11.5 mph 11.5 mph 42 % 0.00 in 889.0 W/m2 CLR
12:55 86.8 °F 60.3 °F 29.95 in East 4.0 mph 4.0 mph 41 % 0.00 in 896.0 W/m2 CLR
13:00 86.7 °F 60.2 °F 29.95 in ESE 6.9 mph 6.9 mph 41 % 0.00 in 904.0 W/m2 CLR
13:05 87.1 °F 59.8 °F 29.95 in SE 6.9 mph 6.9 mph 40 % 0.00 in 905.0 W/m2 CLR
13:10 87.5 °F 60.9 °F 29.95 in ENE 4.6 mph 4.6 mph 41 % 0.00 in 905.0 W/m2 CLR
13:12 87.8 °F 59.8 °F 29.95 in East 10.4 mph 10.4 mph 39 % 0.00 in 911.0 W/m2 CLR
13:17 87.9 °F 59.8 °F 29.95 in SE 8.1 mph 8.1 mph 39 % 0.00 in 914.0 W/m2 CLR
13:22 87.4 °F 59.4 °F 29.94 in SSE 8.1 mph   39 % 0.00 in 916.0 W/m2 CLR
13:27 87.9 °F 60.6 °F 29.94 in East 8.1 mph 8.1 mph 40 % 0.00 in 916.0 W/m2 CLR
13:32 88.1 °F 60.7 °F 29.94 in NE 5.8 mph 5.8 mph 40 % 0.00 in 919.0 W/m2 CLR
13:37 88.7 °F 62.0 °F 29.94 in East 10.4 mph 10.4 mph 41 % 0.00 in 921.0 W/m2 CLR
13:42 88.5 °F 62.5 °F 29.94 in SE 11.5 mph 11.5 mph 42 % 0.00 in 921.0 W/m2 CLR
13:47 88.4 °F 62.4 °F 29.94 in ENE 11.5 mph 11.5 mph 42 % 0.00 in 928.0 W/m2 CLR
13:52 88.5 °F 63.1 °F 29.94 in ESE 9.0 mph 9.0 mph 43 % 0.00 in 926.0 W/m2 CLR
13:57 88.7 °F 63.3 °F 29.93 in ENE 4.6 mph 4.6 mph 43 % 0.00 in 930.0 W/m2 CLR
14:02 88.7 °F 63.3 °F 29.93 in ENE 11.5 mph 11.5 mph 43 % 0.00 in 930.0 W/m2 CLR
14:07 89.1 °F 63.7 °F 29.93 in ENE 11.5 mph 11.5 mph 43 % 0.00 in 928.0 W/m2 CLR
14:12 88.7 °F 64.0 °F 29.93 in ESE 11.5 mph 11.5 mph 44 % 0.00 in 928.0 W/m2 CLR
14:17 89.0 °F 64.9 °F 29.92 in ENE 11.5 mph 11.5 mph 45 % 0.00 in 930.0 W/m2 CLR
14:23 89.1 °F 64.3 °F 29.92 in East 9.2 mph 9.2 mph 44 % 0.00 in 932.0 W/m2 CLR
14:28 88.8 °F 64.1 °F 29.92 in ENE 11.5 mph 11.5 mph 44 % 0.00 in 930.0 W/m2 CLR
14:33 89.1 °F 65.0 °F 29.92 in ESE 12.7 mph 12.7 mph 45 % 0.00 in 923.0 W/m2 CLR
14:38 88.8 °F 64.1 °F 29.92 in East 13.8 mph 13.8 mph 44 % 0.00 in 921.0 W/m2 CLR
14:43 88.9 °F 64.8 °F 29.92 in ENE 15.0 mph 15.0 mph 45 % 0.00 in 914.0 W/m2 CLR
14:48 88.5 °F 64.4 °F 29.92 in ENE 15.0 mph 15.0 mph 45 % 0.00 in 918.0 W/m2 CLR
14:53 89.1 °F 64.3 °F 29.92 in East 11.5 mph 11.5 mph 44 % 0.00 in 914.0 W/m2 CLR
14:58 89.4 °F 64.0 °F 29.91 in East 13.8 mph 13.8 mph 43 % 0.00 in 907.0 W/m2 CLR
15:03 89.3 °F 64.5 °F 29.91 in ENE 15.0 mph 15.0 mph 44 % 0.00 in 900.0 W/m2 CLR
15:08 89.4 °F 64.6 °F 29.91 in East 15.0 mph 15.0 mph 44 % 0.00 in 898.0 W/m2 CLR
15:13 89.3 °F 64.5 °F 29.90 in ENE 16.1 mph 16.1 mph 44 % 0.00 in 893.0 W/m2 CLR
15:18 89.3 °F 64.5 °F 29.90 in East 16.1 mph 16.1 mph 44 % 0.00 in 889.0 W/m2 CLR
15:20 89.3 °F 64.5 °F 29.90 in East 9.2 mph 9.2 mph 44 % 0.00 in 888.0 W/m2 CLR
15:25 89.7 °F 64.2 °F 29.90 in ESE 13.8 mph 13.8 mph 43 % 0.00 in 884.0 W/m2 CLR
15:30 89.5 °F 64.7 °F 29.90 in ESE 12.7 mph 12.7 mph 44 % 0.00 in 875.0 W/m2 CLR
15:35 89.1 °F 64.3 °F 29.90 in ESE 13.8 mph 13.8 mph 44 % 0.00 in 874.0 W/m2 CLR
15:40 89.3 °F 64.5 °F 29.90 in East 13.8 mph 13.8 mph 44 % 0.00 in 867.0 W/m2 CLR
15:45 88.9 °F 64.2 °F 29.89 in ENE 16.1 mph 16.1 mph 44 % 0.00 in 858.0 W/m2 CLR
15:50 89.0 °F 64.3 °F 29.90 in East 17.3 mph 17.3 mph 44 % 0.00 in 851.0 W/m2 CLR
15:55 89.0 °F 64.3 °F 29.90 in ESE 18.4 mph 18.4 mph 44 % 0.00 in 842.0 W/m2 CLR
16:00 89.7 °F 64.2 °F 29.89 in East 15.0 mph 15.0 mph 43 % 0.00 in 831.0 W/m2 CLR
16:05 89.5 °F 64.0 °F 29.89 in East 11.5 mph 11.5 mph 43 % 0.00 in 823.0 W/m2 CLR
16:10 90.0 °F 63.1 °F 29.89 in East 15.0 mph 15.0 mph 41 % 0.00 in 816.0 W/m2 CLR
16:15 90.1 °F 63.9 °F 29.89 in East 15.0 mph 15.0 mph 42 % 0.00 in 807.0 W/m2 CLR
16:20 90.5 °F 64.3 °F 29.88 in ESE 12.7 mph 12.7 mph 42 % 0.00 in 796.0 W/m2 CLR
16:25 90.7 °F 63.8 °F 29.89 in East 15.0 mph 15.0 mph 41 % 0.00 in 788.0 W/m2 CLR
16:30 90.9 °F 62.5 °F 29.89 in SE 13.8 mph 13.8 mph 39 % 0.00 in 777.0 W/m2 CLR
16:35 91.4 °F 62.2 °F 29.88 in ESE 15.0 mph 15.0 mph 38 % 0.00 in 766.0 W/m2 CLR
16:40 91.1 °F 62.0 °F 29.88 in SE 11.5 mph 11.5 mph 38 % 0.00 in 754.0 W/m2 CLR
16:45 90.9 °F 62.5 °F 29.88 in SSE 16.1 mph 16.1 mph 39 % 0.00 in 745.0 W/m2 CLR
16:50 91.0 °F 62.6 °F 29.88 in ESE 15.0 mph 15.0 mph 39 % 0.00 in 735.0 W/m2 CLR
16:55 91.0 °F 63.3 °F 29.88 in East 17.3 mph 17.3 mph 40 % 0.00 in 724.0 W/m2 CLR
17:00 90.8 °F 63.1 °F 29.88 in SE 18.4 mph 18.4 mph 40 % 0.00 in 710.0 W/m2 CLR
17:05 91.0 °F 62.6 °F 29.89 in ESE 18.4 mph 18.4 mph 39 % 0.00 in 700.0 W/m2 CLR
17:10 90.7 °F 63.1 °F 29.88 in SE 12.0 mph 12.0 mph 40 % 0.00 in 686.0 W/m2 CLR
17:15 90.7 °F 61.6 °F 29.88 in SE 19.6 mph 19.6 mph 38 % 0.00 in 675.0 W/m2 CLR
17:20 90.6 °F 61.5 °F 29.88 in SE 17.3 mph 17.3 mph 38 % 0.00 in 664.0 W/m2 CLR
17:25 90.1 °F 61.8 °F 29.88 in SE 20.7 mph 20.7 mph 39 % 0.00 in 647.0 W/m2 CLR
17:30 90.5 °F 61.4 °F 29.88 in SSE 13.8 mph 13.8 mph 38 % 0.00 in 635.0 W/m2 CLR
17:35 90.6 °F 60.8 °F 29.88 in SSE 19.6 mph 19.6 mph 37 % 0.00 in 622.0 W/m2 CLR
17:40 89.9 °F 61.6 °F 29.88 in SSE 19.6 mph 19.6 mph 39 % 0.00 in 610.0 W/m2 CLR
17:45 89.8 °F 62.3 °F 29.88 in ESE 16.0 mph 16.0 mph 40 % 0.00 in 592.0 W/m2 CLR
17:50 89.1 °F 62.3 °F 29.88 in ESE 17.3 mph 17.3 mph 41 % 0.00 in 582.0 W/m2 CLR
17:55 88.6 °F 62.6 °F 29.88 in ESE 15.0 mph 15.0 mph 42 % 0.00 in 566.0 W/m2 CLR
18:00 88.6 °F 63.2 °F 29.88 in ESE 15.0 mph 15.0 mph 43 % 0.00 in 555.0 W/m2 CLR
18:05 88.0 °F 63.4 °F 29.88 in ESE 16.1 mph 16.1 mph 44 % 0.00 in 541.0 W/m2 CLR
18:10 87.7 °F 63.1 °F 29.88 in SE 16.1 mph 16.1 mph 44 % 0.00 in 526.0 W/m2 CLR
18:15 86.9 °F 63.0 °F 29.88 in ESE 15.0 mph 15.0 mph 45 % 0.00 in 510.0 W/m2 CLR
18:20 86.7 °F 63.4 °F 29.88 in ESE 16.1 mph 16.1 mph 46 % 0.00 in 497.0 W/m2 CLR
18:25 86.5 °F 63.3 °F 29.88 in SE 19.6 mph 19.6 mph 46 % 0.00 in 480.0 W/m2 CLR
18:31 86.0 °F 62.8 °F 29.87 in ESE 19.6 mph 19.6 mph 46 % 0.00 in 462.0 W/m2 CLR
18:36 85.7 °F 62.5 °F 29.87 in ESE 17.3 mph 17.3 mph 46 % 0.00 in 436.0 W/m2 CLR
18:41 85.7 °F 62.5 °F 29.88 in SE 18.4 mph 18.4 mph 46 % 0.00 in 424.0 W/m2 CLR
18:46 86.0 °F 62.8 °F 29.88 in SSE 14.0 mph 14.0 mph 46 % 0.00 in 410.0 W/m2 CLR
18:51 86.1 °F 62.3 °F 29.87 in ESE 20.0 mph 20.0 mph 45 % 0.00 in 396.0 W/m2 CLR
18:56 85.4 °F 62.3 °F 29.87 in SE 18.4 mph 18.4 mph 46 % 0.00 in 374.0 W/m2 CLR
19:01 85.2 °F 62.1 °F 29.87 in ESE 18.4 mph 18.4 mph 46 % 0.00 in 360.0 W/m2 CLR
19:06 85.0 °F 62.5 °F 29.87 in SSE 16.1 mph 16.1 mph 47 % 0.00 in 352.0 W/m2 CLR
19:11 85.0 °F 61.9 °F 29.87 in SE 15.0 mph 15.0 mph 46 % 0.00 in 339.0 W/m2 CLR
19:16 84.8 °F 62.3 °F 29.87 in ESE 15.0 mph 15.0 mph 47 % 0.00 in 325.0 W/m2 CLR
19:21 84.9 °F 62.4 °F 29.87 in SE 16.1 mph 16.1 mph 47 % 0.00 in 313.0 W/m2 CLR
19:26 84.7 °F 62.2 °F 29.87 in SE 11.5 mph 11.5 mph 47 % 0.00 in 301.0 W/m2 CLR
19:31 84.9 °F 62.4 °F 29.87 in SE 12.7 mph 12.7 mph 47 % 0.00 in 283.0 W/m2 CLR
19:36 85.0 °F 62.5 °F 29.87 in ESE 8.1 mph 8.1 mph 47 % 0.00 in 262.0 W/m2 CLR
19:41 84.8 °F 62.3 °F 29.87 in ESE 11.5 mph 11.5 mph 47 % 0.00 in 262.0 W/m2 CLR
19:46 84.9 °F 61.8 °F 29.87 in ESE 10.4 mph 10.4 mph 46 % 0.00 in 244.0 W/m2 CLR
19:51 84.9 °F 61.8 °F 29.87 in ESE 11.5 mph 11.5 mph 46 % 0.00 in 221.0 W/m2 CLR
19:56 84.6 °F 61.5 °F 29.87 in ESE 11.5 mph 11.5 mph 46 % 0.00 in 206.0 W/m2 CLR
20:01 84.4 °F 61.4 °F 29.87 in ESE 12.0 mph 12.0 mph 46 % 0.00 in 186.0 W/m2 CLR
20:06 84.0 °F 61.0 °F 29.87 in ESE 12.7 mph 12.7 mph 46 % 0.00 in 167.0 W/m2 CLR
20:11 83.8 °F 60.8 °F 29.87 in SE 10.4 mph 10.4 mph 46 % 0.00 in 151.0 W/m2 CLR
20:16 83.9 °F 60.3 °F 29.87 in ESE 4.6 mph 4.6 mph 45 % 0.00 in 135.0 W/m2 CLR
20:21 84.0 °F 60.4 °F 29.88 in ESE 12.7 mph 12.7 mph 45 % 0.00 in 120.0 W/m2 CLR
20:26 83.8 °F 59.6 °F 29.87 in SE 9.2 mph 9.2 mph 44 % 0.00 in 104.0 W/m2 CLR
20:31 83.7 °F 59.5 °F 29.87 in ESE 11.5 mph 11.5 mph 44 % 0.00 in 91.0 W/m2 CLR
20:36 83.5 °F 59.3 °F 29.87 in SE 12.0 mph 12.0 mph 44 % 0.00 in 79.0 W/m2 FEW
20:41 83.3 °F 59.1 °F 29.87 in ESE 9.2 mph 9.2 mph 44 % 0.00 in 67.0 W/m2 FEW
20:46 83.1 °F 58.9 °F 29.88 in ESE 5.8 mph 5.8 mph 44 % 0.00 in 58.0 W/m2 SCT
20:51 82.9 °F 60.0 °F 29.88 in ESE 5.8 mph 5.8 mph 46 % 0.00 in 39.0 W/m2 BKN
20:56 82.3 °F 60.6 °F 29.88 in ESE 6.9 mph 6.9 mph 48 % 0.00 in 39.0 W/m2 BKN
21:01 81.8 °F 60.8 °F 29.88 in SE 12.0 mph 12.0 mph 49 % 0.00 in 32.0 W/m2 BKN
21:06 81.4 °F 60.4 °F 29.88 in ESE 10.4 mph 10.4 mph 49 % 0.00 in 26.0 W/m2 BKN
21:11 81.1 °F 60.1 °F 29.88 in ESE 10.4 mph 10.4 mph 49 % 0.00 in 21.0 W/m2 BKN
21:16 81.0 °F 60.6 °F 29.88 in ESE 9.2 mph 9.2 mph 50 % 0.00 in 18.0 W/m2 BKN
21:21 80.8 °F 59.9 °F 29.88 in SE 10.4 mph 10.4 mph 49 % 0.00 in 12.0 W/m2 BKN
21:26 80.7 °F 59.2 °F 29.88 in SE 10.0 mph 10.0 mph 48 % 0.00 in 9.0 W/m2 BKN
21:31 80.5 °F 59.6 °F 29.88 in SSE 11.5 mph 11.5 mph 49 % 0.00 in 5.0 W/m2 OVC
21:36 80.2 °F 59.3 °F 29.88 in ESE 8.1 mph 8.1 mph 49 % 0.00 in 0.0 W/m2 OVC
21:41 79.9 °F 59.6 °F 29.88 in East 3.5 mph 3.5 mph 50 % 0.00 in 0.0 W/m2 OVC
21:46 79.6 °F 59.9 °F 29.88 in NE 5.0 mph 5.0 mph 51 % 0.00 in 0.0 W/m2 CLR
21:51 79.2 °F 60.1 °F 29.88 in East 5.0 mph 5.0 mph 52 % 0.00 in 0.0 W/m2 CLR
21:56 78.8 °F 59.7 °F 29.88 in Calm     52 % 0.00 in 0.0 W/m2 CLR
22:01 78.6 °F 59.5 °F 29.89 in ESE 9.2 mph 9.2 mph 52 % 0.00 in 0.0 W/m2 CLR
22:06 78.6 °F 59.0 °F 29.89 in ESE 5.8 mph 5.8 mph 51 % 0.00 in 0.0 W/m2 CLR
22:11 78.5 °F 58.9 °F 29.90 in ESE 6.9 mph 6.9 mph 51 % 0.00 in 0.0 W/m2 CLR
22:16 78.6 °F 58.4 °F 29.90 in ESE 3.5 mph 3.5 mph 50 % 0.00 in 0.0 W/m2 CLR
22:21 78.5 °F 58.3 °F 29.90 in SE 5.8 mph 5.8 mph 50 % 0.00 in 0.0 W/m2 CLR
22:26 78.4 °F 58.2 °F 29.91 in SE 5.8 mph 5.8 mph 50 % 0.00 in 0.0 W/m2 CLR
22:31 78.3 °F 57.6 °F 29.91 in SE 3.5 mph 3.5 mph 49 % 0.00 in 0.0 W/m2 CLR
22:36 78.3 °F 57.6 °F 29.91 in SE 4.6 mph 4.6 mph 49 % 0.00 in 0.0 W/m2 CLR
22:41 78.4 °F 57.1 °F 29.91 in SSE 6.0 mph 6.0 mph 48 % 0.00 in 0.0 W/m2 CLR
22:46 78.6 °F 57.3 °F 29.91 in SE 5.8 mph 5.8 mph 48 % 0.00 in 0.0 W/m2 CLR
22:51 78.6 °F 57.3 °F 29.92 in SE 6.9 mph 6.9 mph 48 % 0.00 in 0.0 W/m2 CLR
22:56 78.5 °F 57.2 °F 29.92 in Calm     48 % 0.00 in 0.0 W/m2 CLR
23:01 78.5 °F 57.7 °F 29.92 in Calm     49 % 0.00 in 0.0 W/m2 CLR
23:06 78.4 °F 57.7 °F 29.93 in Calm     49 % 0.00 in 0.0 W/m2 CLR
23:11 78.3 °F 57.6 °F 29.93 in Calm     49 % 0.00 in 0.0 W/m2 CLR
23:16 78.2 °F 57.5 °F 29.93 in Calm     49 % 0.00 in 0.0 W/m2 CLR
23:21 78.0 °F 57.9 °F 29.93 in SSE 4.6 mph 4.6 mph 50 % 0.00 in 0.0 W/m2 CLR
23:26 77.9 °F 58.3 °F 29.93 in Calm     51 % 0.00 in 0.0 W/m2 CLR
23:31 77.8 °F 58.2 °F 29.94 in Calm     51 % 0.00 in 0.0 W/m2 CLR
23:36 77.6 °F 58.6 °F 29.94 in SSW 3.5 mph   52 % 0.00 in 0.0 W/m2 CLR
23:37 77.6 °F 58.6 °F 29.94 in South 3.5 mph 3.5 mph 52 % 0.00 in 0.0 W/m2 CLR
23:42 77.5 °F 58.5 °F 29.95 in South 2.3 mph 2.3 mph 52 % 0.00 in 0.0 W/m2 CLR
23:47 77.3 °F 58.3 °F 29.96 in South 6.0 mph 6.0 mph 52 % 0.00 in 0.0 W/m2 CLR
23:52 77.3 °F 58.3 °F 29.96 in SSE 8.0 mph 8.0 mph 52 % 0.00 in 0.0 W/m2 CLR
23:57 77.2 °F 58.7 °F 29.96 in SE 8.0 mph 8.0 mph 53 % 0.00 in 0.0 W/m2 CLR
Lo Temps de Massalio
Compliments of Weather Underground - 1.25 mb